Nearby METAR Reports

Here are local weather reports from nearby weather stations and airports.

KHFD - Hartford/Brainar, Connecticut, USA
Distance from station: NE 5mi, 8km
Updated: Sat, 10/23/21 3:53pm EDT
Few Clouds
Few Clouds
 Wind from varies
Wind: varies 6 mph , 9 km/h
Temperature: 61°F , 16°C
Dew Point: 36°F , 2°C
Humidity: 39%
Barometer: 29.90 inHg , 1012.5 hPa
Clouds: Few Clouds
Visibility: 10 miles , 16 km
Cloud details: Few Clouds 11000 ft
2021/10/23 19:53 KHFD 231953Z VRB05KT 10SM FEW110 16/02 A2990 RMK AO2 SLP124 T01610022
KMMK - Meriden, Connecticut, USA
Distance from station: SSW 13mi, 21km
Updated: Sat, 10/23/21 3:53pm EDT
Few Clouds
Few Clouds
 Wind from W
Wind: W 5 mph , 7 km/h
Temperature: 61°F , 16°C
Dew Point: 36°F , 2°C
Humidity: 39%
Barometer: 29.91 inHg , 1012.9 hPa
Clouds: Few Clouds
Visibility: 10 miles , 16 km
Cloud details: Few Clouds 11000 ft
2021/10/23 19:53 KMMK 231953Z AUTO 27004KT 10SM FEW110 16/02 A2991 RMK AO2 SLP127 T01560022
 
KBDL - Windsor Locks, Connecticut, USA
Distance from station: N 17mi, 28km
Updated: Sat, 10/23/21 3:51pm EDT
Partly cloudy
Partly cloudy
 Wind from WNW
Wind: WNW 9 mph , 15 km/h
Temperature: 59°F , 15°C
Dew Point: 36°F , 2°C
Humidity: 42%
Barometer: 29.90 inHg , 1012.5 hPa
Clouds: Partly cloudy
Visibility: 10 miles , 16 km
Cloud details: Few Clouds 5000 ft
Few Clouds 12000 ft
Partly cloudy 18000 ft
2021/10/23 19:51 KBDL 231951Z 29008KT 10SM FEW050 FEW120 SCT180 15/02 A2990 RMK AO2 SLP126 T01500017
KSNC - Chester, Connecticut, USA
Distance from station: SSE 24mi, 38km
Updated: Sat, 10/23/21 4:35pm EDT
Few Clouds
Few Clouds
 Wind from varies
Wind: varies 5 mph , 7 km/h
Temperature: 59°F , 15°C
Dew Point: 39°F , 4°C
Humidity: 48%
Barometer: 29.92 inHg , 1013.2 hPa
Clouds: Few Clouds
Visibility: 10 miles , 16 km
Cloud details: Few Clouds 11000 ft
2021/10/23 20:35 KSNC 232035Z AUTO VRB04KT 10SM FEW110 15/04 A2992 RMK AO2
 
KOXC - Oxford/Waterbury, Connecticut, USA
Distance from station: SW 26mi, 42km
Updated: Sat, 10/23/21 3:51pm EDT
Clear
Clear
 Wind from varies
Wind: varies 5 mph , 7 km/h
Temperature: 55°F , 13°C
Dew Point: 37°F , 3°C
Humidity: 51%
Barometer: 29.92 inHg , 1013.2 hPa
Clouds: Clear
Visibility: 10 miles , 16 km
2021/10/23 19:51 KOXC 231951Z VRB04KT 10SM CLR 13/03 A2992 RMK AO2 SLP145 T01330033
KIJD - Willimantic, Connecticut, USA
Distance from station: E 28mi, 45km
Updated: Sat, 10/23/21 3:52pm EDT
Clear
Clear
 Wind from W
Wind: W 8 mph , 13 km/h
Temperature: 59°F , 15°C
Dew Point: 36°F , 2°C
Humidity: 42%
Barometer: 29.90 inHg , 1012.5 hPa
Clouds: Clear
Visibility: 10 miles , 16 km
2021/10/23 19:52 KIJD 231952Z AUTO 27007KT 10SM CLR 15/02 A2990 RMK AO2 SLP126 T01500022
 
KHVN - New Haven/Tweed, Connecticut, USA
Distance from station: SSW 30mi, 48km
Updated: Sat, 10/23/21 3:53pm EDT
Few Clouds
Few Clouds
 Wind from calm
Wind: Calm
Temperature: 61°F , 16°C
Dew Point: 43°F , 6°C
Humidity: 52%
Barometer: 29.91 inHg , 1012.9 hPa
Clouds: Few Clouds
Visibility: 10 miles , 16 km
Cloud details: Few Clouds 9000 ft
Few Clouds 12000 ft
2021/10/23 19:53 KHVN 231953Z 00000KT 10SM FEW090 FEW120 16/06 A2991 RMK AO2 SLP128 T01610056
KBAF - Westfield, Massachusetts, USA
Distance from station: 0 33mi, 54km
Updated: Sat, 10/23/21 3:53pm EDT
Clear
Clear
 Wind from NW
Wind: NW 12 mph , 19 km/h
Temperature: 59°F , 15°C
Dew Point: 36°F , 2°C
Humidity: 42%
Barometer: 29.91 inHg , 1012.9 hPa
Clouds: Clear
Visibility: 10 miles , 16 km
2021/10/23 19:53 KBAF 231953Z 32010KT 10SM CLR 15/02 A2991 RMK AO2 SLP129 T01500017
 
KCEF - Chicopee/Westove, Massachusetts, USA
Distance from station: NNE 37mi, 60km
Updated: Sat, 10/23/21 3:56pm EDT
Partly cloudy
Partly cloudy
 Wind from NNW
Wind: NNW 10 mph , 17 km/h
Temperature: 57°F , 14°C
Dew Point: 34°F , 1°C
Humidity: 41%
Barometer: 29.89 inHg , 1012.2 hPa
Clouds: Partly cloudy
Visibility: 10 miles , 16 km
Cloud details: Few Clouds 5000 ft
Partly cloudy 13000 ft
2021/10/23 19:56 KCEF 231956Z 34009KT 10SM FEW050 SCT130 14/01 A2989 RMK AO2A SLP128 T01350005
KBDR - Bridgeport, Connecticut, USA
Distance from station: SSW 42mi, 67km
Updated: Sat, 10/23/21 3:52pm EDT
Clear
Clear
 Wind from WSW
Wind: WSW 6 mph , 9 km/h
Temperature: 61°F , 16°C
Dew Point: 41°F , 5°C
Humidity: 48%
Barometer: 29.91 inHg , 1012.9 hPa
Clouds: Clear
Visibility: 10 miles , 16 km
2021/10/23 19:52 KBDR 231952Z 25005KT 10SM CLR 16/05 A2991 RMK AO2 SLP129 T01610050
 
KGON - Groton/New Londo, Connecticut, USA
Distance from station: SE 42mi, 68km
Updated: Sat, 10/23/21 3:56pm EDT
Clear
Clear
 Wind from WNW
Wind: WNW 6 mph , 9 km/h
Temperature: 61°F , 16°C
Dew Point: 39°F , 4°C
Humidity: 45%
Barometer: 29.90 inHg , 1012.5 hPa
Clouds: Clear
Visibility: 10 miles , 16 km
2021/10/23 19:56 KGON 231956Z 30005KT 10SM CLR 16/04 A2990 RMK AO2 SLP123 T01560044
KDXR - Danbury, Connecticut, USA
Distance from station: WSW 45mi, 73km
Updated: Sat, 10/23/21 3:53pm EDT
Partly cloudy
Partly cloudy
 Wind from WSW
Wind: WSW 3 mph , 6 km/h
Temperature: 57°F , 14°C
Dew Point: 39°F , 4°C
Humidity: 51%
Barometer: 29.93 inHg , 1013.5 hPa
Clouds: Partly cloudy
Visibility: 10 miles , 16 km
Cloud details: Partly cloudy 10000 ft
2021/10/23 19:53 KDXR 231953Z 25003KT 10SM SCT100 14/04 A2993 RMK AO2 SLP134 T01440044